JA321B RJFC-RJFM

Flight info

Callsign JA321B
Flight time 0h 49m
Altitude 12000
Route SURF2 TGE DCT MZE DCT
Aircraft HDJT/L-SABDGRWY/H

Departure

Time 2026-05-01 13:07
Airport Yakushima Airport (RJFC)

Arrival

Time 2026-05-01 13:56
Airport Miyazaki Airport (RJFM)
Time Latitude Longitude Altitude Speed Heading
2026-05-01 12:52 30.38396 130.65903 115 ft 0 kts
2026-05-01 13:00 30.38405 130.65912 115 ft 5 kts 75°
2026-05-01 13:00 30.38413 130.65975 115 ft 7 kts 56°
2026-05-01 13:01 30.38442 130.66058 115 ft 8 kts 124°
2026-05-01 13:01 30.38400 130.66110 115 ft 9 kts 133°
2026-05-01 13:01 30.38301 130.66231 114 ft 11 kts 133°
2026-05-01 13:02 30.38243 130.66303 114 ft 13 kts 133°
2026-05-01 13:07 30.54051 130.73215 11999 ft 356 kts 72°
2026-05-01 13:07 30.54676 130.75996 11999 ft 357 kts 71°
2026-05-01 13:07 30.55354 130.78772 11999 ft 358 kts 70°
2026-05-01 13:08 30.56043 130.81541 11998 ft 358 kts 70°
2026-05-01 13:08 30.56696 130.84329 11997 ft 358 kts 71°
2026-05-01 13:08 30.57346 130.87114 11997 ft 358 kts 71°
2026-05-01 13:08 30.58015 130.89895 11997 ft 358 kts 70°
2026-05-01 13:09 30.58702 130.92666 11997 ft 356 kts 68°
2026-05-01 13:09 30.59758 130.95230 11983 ft 350 kts 53°
2026-05-01 13:09 30.61203 130.97461 11986 ft 342 kts 41°
2026-05-01 13:09 30.62970 130.99272 11983 ft 336 kts 30°
2026-05-01 13:10 30.64955 131.00630 11983 ft 328 kts 18°
2026-05-01 13:10 30.67078 131.01515 11985 ft 322 kts
2026-05-01 13:10 30.69234 131.02224 11977 ft 323 kts
2026-05-01 13:10 30.71356 131.02991 11985 ft 323 kts 11°
2026-05-01 13:11 30.73534 131.03766 11990 ft 322 kts
2026-05-01 13:11 30.75653 131.04479 11989 ft 321 kts
2026-05-01 13:11 30.77825 131.05215 11988 ft 322 kts
2026-05-01 13:11 30.79944 131.05959 11991 ft 322 kts 10°
2026-05-01 13:12 30.82087 131.06708 11987 ft 321 kts
2026-05-01 13:12 30.84225 131.07445 11988 ft 321 kts
2026-05-01 13:12 30.86378 131.08188 11989 ft 322 kts
2026-05-01 13:12 30.88521 131.08939 11991 ft 321 kts
2026-05-01 13:13 30.89945 131.09430 11992 ft 322 kts
2026-05-01 13:13 30.92093 131.10164 11993 ft 322 kts
2026-05-01 13:13 30.94240 131.10916 11990 ft 322 kts 10°
2026-05-01 13:13 30.96385 131.11664 11988 ft 322 kts
2026-05-01 13:14 30.98534 131.12407 11988 ft 322 kts
2026-05-01 13:14 31.00680 131.13150 11986 ft 322 kts
2026-05-01 13:14 31.02823 131.13898 11989 ft 321 kts
2026-05-01 13:14 31.04965 131.14645 11989 ft 322 kts
2026-05-01 13:15 31.07115 131.15388 11987 ft 321 kts
2026-05-01 13:15 31.09260 131.16133 11992 ft 322 kts
2026-05-01 13:15 31.11401 131.16887 12028 ft 321 kts
2026-05-01 13:15 31.13545 131.17629 12027 ft 322 kts
2026-05-01 13:16 31.15690 131.18374 12027 ft 322 kts
2026-05-01 13:16 31.17840 131.19124 12027 ft 322 kts
2026-05-01 13:16 31.19984 131.19878 12027 ft 322 kts
2026-05-01 13:17 31.26410 131.22116 12028 ft 321 kts
2026-05-01 13:17 31.28523 131.22859 12025 ft 320 kts
2026-05-01 13:18 31.32795 131.24352 12027 ft 321 kts
2026-05-01 13:18 31.34932 131.25101 12028 ft 320 kts
2026-05-01 13:18 31.37028 131.26049 12018 ft 330 kts 23°
2026-05-01 13:18 31.38803 131.27830 11689 ft 343 kts 43°
2026-05-01 13:19 31.40147 131.30051 11145 ft 325 kts 51°
2026-05-01 13:19 31.41294 131.32238 10584 ft 307 kts 53°
2026-05-01 13:19 31.43447 131.36392 9472 ft 288 kts 52°
2026-05-01 13:20 31.44449 131.38403 8926 ft 283 kts 53°
2026-05-01 13:20 31.45405 131.40347 8374 ft 267 kts 53°
2026-05-01 13:20 31.46310 131.42196 7813 ft 258 kts 53°
2026-05-01 13:21 31.48087 131.45769 7000 ft 245 kts 53°
2026-05-01 13:21 31.48973 131.47523 7002 ft 254 kts 53°
2026-05-01 13:21 31.49877 131.49283 7002 ft 253 kts 52°
2026-05-01 13:21 31.50786 131.51056 7002 ft 254 kts 53°
2026-05-01 13:22 31.51700 131.52830 7006 ft 253 kts 53°
2026-05-01 13:22 31.52605 131.54568 7008 ft 254 kts 52°
2026-05-01 13:22 31.53529 131.56342 7002 ft 254 kts 52°
2026-05-01 13:22 31.54446 131.58112 7006 ft 253 kts 52°
2026-05-01 13:23 31.55359 131.59883 7007 ft 255 kts 53°
2026-05-01 13:23 31.56271 131.61654 6962 ft 255 kts 52°
2026-05-01 13:23 31.57198 131.63440 6595 ft 255 kts 53°
2026-05-01 13:23 31.58116 131.65200 6212 ft 251 kts 52°
2026-05-01 13:24 31.59036 131.66943 5839 ft 252 kts 53°
2026-05-01 13:24 31.59959 131.68679 5466 ft 250 kts 52°
2026-05-01 13:24 31.60883 131.70404 5088 ft 249 kts 52°
2026-05-01 13:25 31.62723 131.73824 4337 ft 247 kts 53°
2026-05-01 13:25 31.63641 131.75529 4005 ft 245 kts 53°
2026-05-01 13:25 31.64551 131.77213 4003 ft 247 kts 52°
2026-05-01 13:25 31.65441 131.78864 3992 ft 231 kts 52°
2026-05-01 13:26 31.66274 131.80431 3988 ft 227 kts 52°
2026-05-01 13:26 31.67108 131.81999 3989 ft 226 kts 52°
2026-05-01 13:26 31.67947 131.83574 3987 ft 226 kts 52°
2026-05-01 13:26 31.68793 131.85140 3988 ft 226 kts 48°
2026-05-01 13:27 31.69954 131.86249 3988 ft 212 kts 18°
2026-05-01 13:27 31.71318 131.86848 4001 ft 201 kts 12°
2026-05-01 13:27 31.73814 131.87900 3987 ft 191 kts 12°
2026-05-01 13:28 31.76301 131.88954 3989 ft 190 kts 13°
2026-05-01 13:28 31.77546 131.89482 3991 ft 190 kts 12°
2026-05-01 13:29 31.80032 131.90534 3991 ft 190 kts 13°
2026-05-01 13:29 31.82525 131.91596 3993 ft 191 kts 13°
2026-05-01 13:30 31.86539 131.90351 4009 ft 169 kts 292°
2026-05-01 13:31 31.87383 131.87963 3967 ft 151 kts 292°
2026-05-01 13:31 31.88613 131.84503 3203 ft 151 kts 292°
2026-05-01 13:32 31.89430 131.82242 2706 ft 151 kts 292°
2026-05-01 13:33 31.90701 131.78835 2000 ft 148 kts 291°
2026-05-01 13:33 31.90302 131.76559 2005 ft 152 kts 251°
2026-05-01 13:34 31.89839 131.74157 2003 ft 153 kts 265°
2026-05-01 13:34 31.89625 131.71677 2002 ft 152 kts 267°
2026-05-01 13:35 31.89448 131.69196 2000 ft 151 kts 268°
2026-05-01 13:35 31.89369 131.67962 2003 ft 152 kts 267°
2026-05-01 13:35 31.89187 131.65481 2002 ft 152 kts 268°
2026-05-01 13:36 31.89097 131.64235 2003 ft 153 kts 267°
2026-05-01 13:36 31.89005 131.62994 2002 ft 152 kts 268°
2026-05-01 13:36 31.88827 131.60477 2004 ft 159 kts 266°
2026-05-01 13:37 31.88737 131.59206 2002 ft 154 kts 267°
2026-05-01 13:37 31.88650 131.57950 1977 ft 151 kts 266°
2026-05-01 13:37 31.88563 131.56753 1797 ft 143 kts 266°
2026-05-01 13:37 31.88480 131.55624 1622 ft 132 kts 266°
2026-05-01 13:38 31.88338 131.53592 1287 ft 123 kts 265°
2026-05-01 13:38 31.88266 131.52590 1123 ft 120 kts 265°
2026-05-01 13:38 31.88199 131.51664 983 ft 113 kts 265°
2026-05-01 13:39 31.88133 131.50749 825 ft 111 kts 266°
2026-05-01 13:39 31.88068 131.49839 675 ft 111 kts 265°
2026-05-01 13:39 31.88003 131.48929 527 ft 111 kts 265°
2026-05-01 13:39 31.87940 131.48020 377 ft 110 kts 266°
2026-05-01 13:40 31.87877 131.47130 238 ft 110 kts 265°
2026-05-01 13:40 31.87813 131.46258 94 ft 103 kts 265°
2026-05-01 13:40 31.87754 131.45460 26 ft 92 kts 264°
2026-05-01 13:40 31.87700 131.44669 27 ft 111 kts 265°
2026-05-01 13:41 31.87630 131.43702 210 ft 120 kts 266°
2026-05-01 13:41 31.87570 131.42735 541 ft 117 kts 265°
2026-05-01 13:41 31.87495 131.41709 914 ft 143 kts 265°
2026-05-01 13:41 31.87403 131.40367 1534 ft 183 kts 265°
2026-05-01 13:42 31.87293 131.38750 2430 ft 211 kts 266°
2026-05-01 13:42 31.87161 131.36979 3470 ft 229 kts 266°
2026-05-01 13:42 31.87022 131.35065 4594 ft 239 kts 273°
2026-05-01 13:42 31.87471 131.33169 5753 ft 246 kts 298°
2026-05-01 13:43 31.88392 131.31448 6971 ft 251 kts 303°
2026-05-01 13:43 31.89324 131.29742 8006 ft 241 kts 303°
2026-05-01 13:43 31.90182 131.28118 7360 ft 231 kts 303°
2026-05-01 13:43 31.91081 131.26505 6256 ft 236 kts 311°
2026-05-01 13:44 31.92426 131.25432 5280 ft 243 kts 338°
2026-05-01 13:44 31.94143 131.25382 4999 ft 250 kts
2026-05-01 13:44 31.95705 131.26421 5005 ft 268 kts 39°
2026-05-01 13:44 31.96749 131.28250 5005 ft 274 kts 60°
2026-05-01 13:45 31.97520 131.30317 5004 ft 276 kts 63°
2026-05-01 13:45 31.98277 131.32383 5006 ft 274 kts 62°
2026-05-01 13:45 31.98998 131.34460 5001 ft 276 kts 69°
2026-05-01 13:45 31.99196 131.36720 4996 ft 281 kts 90°
2026-05-01 13:46 31.99045 131.39031 5000 ft 284 kts 93°
2026-05-01 13:46 31.98888 131.41345 5003 ft 284 kts 92°
2026-05-01 13:46 31.98738 131.43660 5005 ft 283 kts 92°
2026-05-01 13:46 31.98578 131.45973 5003 ft 284 kts 92°
2026-05-01 13:47 31.98416 131.48288 5002 ft 284 kts 92°
2026-05-01 13:47 31.98257 131.50603 5001 ft 282 kts 92°
2026-05-01 13:47 31.98100 131.52908 5002 ft 282 kts 92°
2026-05-01 13:47 31.97942 131.55215 4952 ft 285 kts 93°
2026-05-01 13:48 31.97838 131.57535 4799 ft 283 kts 86°
2026-05-01 13:48 31.97955 131.59835 4470 ft 277 kts 83°
2026-05-01 13:48 31.98106 131.62062 4147 ft 277 kts 83°
2026-05-01 13:48 31.98265 131.64314 3820 ft 276 kts 82°
2026-05-01 13:49 31.98430 131.66568 3494 ft 271 kts 83°
2026-05-01 13:49 31.98586 131.68679 3158 ft 247 kts 83°
2026-05-01 13:49 31.98507 131.70630 2812 ft 234 kts 107°
2026-05-01 13:49 31.97666 131.72200 2465 ft 225 kts 143°
2026-05-01 13:50 31.96307 131.72978 2146 ft 214 kts 170°
2026-05-01 13:50 31.94860 131.73371 1833 ft 212 kts 172°
2026-05-01 13:50 31.93430 131.73690 1681 ft 203 kts 183°
2026-05-01 13:50 31.92114 131.73248 1683 ft 196 kts 220°
2026-05-01 13:51 31.91159 131.72148 1690 ft 193 kts 232°
2026-05-01 13:51 31.90267 131.70971 1687 ft 191 kts 235°
2026-05-01 13:51 31.89685 131.69599 1689 ft 187 kts 254°
2026-05-01 13:51 31.89417 131.68121 1688 ft 183 kts 265°
2026-05-01 13:52 31.89276 131.66622 1687 ft 184 kts 266°
2026-05-01 13:52 31.89154 131.65117 1686 ft 183 kts 267°
2026-05-01 13:52 31.89061 131.63602 1876 ft 190 kts 267°
2026-05-01 13:52 31.88942 131.62103 1987 ft 183 kts 266°
2026-05-01 13:53 31.88839 131.60573 1976 ft 191 kts 267°
2026-05-01 13:53 31.88616 131.57556 1908 ft 173 kts 267°
2026-05-01 13:53 31.88527 131.56195 1707 ft 161 kts 265°
2026-05-01 13:54 31.88432 131.54922 1499 ft 152 kts 266°
2026-05-01 13:54 31.88346 131.53736 1310 ft 136 kts 266°
2026-05-01 13:54 31.88271 131.52701 1147 ft 119 kts 265°
2026-05-01 13:54 31.88201 131.51721 990 ft 121 kts 265°
2026-05-01 13:55 31.88132 131.50724 821 ft 122 kts 265°
2026-05-01 13:55 31.88060 131.49747 670 ft 121 kts 265°
2026-05-01 13:55 31.87996 131.48808 480 ft 109 kts 266°
2026-05-01 13:55 31.87930 131.47915 335 ft 111 kts 265°
2026-05-01 13:56 31.87865 131.47043 212 ft 103 kts 265°
2026-05-01 13:56 31.87811 131.46210 101 ft 107 kts 265°
2026-05-01 13:56 31.87751 131.45383 25 ft 90 kts 265°
2026-05-01 13:56 31.87711 131.44814 27 ft 44 kts 265°
2026-05-01 13:57 31.87689 131.44626 28 ft 12 kts 234°
2026-05-01 13:57 31.87646 131.44592 27 ft 11 kts 193°
2026-05-01 13:57 31.87552 131.44584 25 ft 9 kts 212°
2026-05-01 13:57 31.87524 131.44517 25 ft 10 kts 265°
2026-05-01 13:58 31.87517 131.44422 24 ft 13 kts 264°
2026-05-01 13:58 31.87509 131.44308 25 ft 15 kts 265°
2026-05-01 13:58 31.87497 131.44180 25 ft 16 kts 264°
2026-05-01 13:58 31.87486 131.44046 26 ft 17 kts 265°
2026-05-01 13:59 31.87480 131.43952 28 ft 18 kts 266°
2026-05-01 13:59 31.87462 131.43822 27 ft 7 kts 230°
2026-05-01 13:59 31.87434 131.43798 27 ft 6 kts 211°
2026-05-01 13:59 31.87415 131.43779 28 ft 2 kts 220°
2026-05-01 14:00 31.87413 131.43778 28 ft 0 kts 220°